Main page
METAR-TAF:

METAR-TAF

Airports :

Pontoise – Cormeilles Aerodrome

Pontoise, France

latitude: 49-05-48N, longitude: 002-02-27E, elevation: 99 m

Current weather observation

The report was made 26 minutes ago, at 22:30 UTC
Wind 7 kt from the South/Southeast
Temperature 8°C
Humidity 81%
Pressure 1002 hPa
Visibility 10 km or more
Broken clouds at a height of 1500 ft
Broken clouds at a height of 3300 ft
Broken clouds at a height of 4700 ft

METAR: LFPT 212230Z AUTO 15007KT 9999 BKN015 BKN033 BKN047 08/05 Q1002

Time: 23:56 (22:56 UTC)


TAF: missing

Weather observations and forecasts of more than 4000 airports (METAR and TAF reports).

The available stations are represented by yellow and red dots on the map.

Hover mouse over dot to see the name of the station.

Then click to see weather observations and forecasts.

To change the map : click on the green buttons with a black cross to zoom in, on the green button with a dash to zoom out, or on the green arrows for adjacent maps.


METAR-TAF: